Time;durP1;ratioP1;P1;durP2;ratioP2;P2;SDS_P1;SDS_P2;PMS_P1;PMS_P2;Temp;Humidity;BMP_temperature;BMP_pressure;BME280_temperature;BME280_humidity;BME280_pressure;Samples;Min_cycle;Max_cycle;Signal;HPM_P1;HPM_P2
2022/02/25 00:02:08;;;;;;;15.82;4.05;;;;;;;0.63;85.04;99505.28;5027427;28;20052;-56
2022/02/25 00:04:34;;;;;;;12.95;3.65;;;;;;;0.62;85.00;99510.72;5027663;28;20108;-54
2022/02/25 00:06:59;;;;;;;14.05;4.22;;;;;;;0.54;85.26;99516.84;5027839;28;20055;-56
2022/02/25 00:09:25;;;;;;;13.93;3.60;;;;;;;0.52;86.03;99518.81;5028426;28;20052;-52
2022/02/25 00:11:50;;;;;;;8.93;3.67;;;;;;;0.55;85.51;99517.66;5029054;28;20037;-54
2022/02/25 00:14:15;;;;;;;9.82;3.67;;;;;;;0.52;86.05;99512.72;5040829;28;20040;-53
2022/02/25 00:16:41;;;;;;;10.05;3.30;;;;;;;0.55;85.51;99531.69;5028322;28;20053;-55
2022/02/25 00:19:06;;;;;;;15.25;3.95;;;;;;;0.62;85.21;99535.31;5027716;28;20029;-55
2022/02/25 00:21:32;;;;;;;9.45;4.18;;;;;;;0.64;85.40;99543.84;5031977;28;20064;-55
2022/02/25 00:23:57;;;;;;;9.85;3.72;;;;;;;0.61;85.23;99538.91;5028196;28;20033;-54
2022/02/25 00:26:23;;;;;;;11.40;3.55;;;;;;;0.62;85.20;99551.13;5032713;28;20475;-54
2022/02/25 00:28:48;;;;;;;11.70;3.42;;;;;;;0.69;84.82;99551.25;5035349;28;20495;-55
2022/02/25 00:31:14;;;;;;;9.05;3.70;;;;;;;0.60;84.57;99561.03;5028160;28;20026;-54
2022/02/25 00:33:39;;;;;;;17.52;3.97;;;;;;;0.52;85.52;99561.03;5037006;28;20479;-54
2022/02/25 00:36:05;;;;;;;11.75;3.92;;;;;;;0.49;85.70;99569.28;5030244;28;20040;-53
2022/02/25 00:38:30;;;;;;;7.75;3.40;;;;;;;0.53;84.93;99569.78;5029304;28;20040;-54
2022/02/25 00:40:56;;;;;;;13.52;3.17;;;;;;;0.60;84.43;99571.56;5026527;28;20072;-52
2022/02/25 00:43:21;;;;;;;12.88;3.72;;;;;;;0.57;84.39;99574.53;5037959;28;20025;-54
2022/02/25 00:45:46;;;;;;;12.40;2.78;;;;;;;0.55;84.42;99587.09;5029244;28;20436;-54
2022/02/25 00:48:12;;;;;;;10.95;3.50;;;;;;;0.52;84.61;99584.75;5031059;28;20087;-54
2022/02/25 00:50:37;;;;;;;14.23;3.70;;;;;;;0.59;84.73;99574.38;5027549;28;20045;-54
2022/02/25 00:53:03;;;;;;;10.77;3.15;;;;;;;0.56;84.52;99583.44;5031487;28;20037;-54
2022/02/25 00:55:28;;;;;;;10.63;3.00;;;;;;;0.56;84.52;99598.44;5037165;28;20038;-54
2022/02/25 00:57:57;;;;;;;8.60;3.03;;;;;;;0.52;84.77;99597.94;5033439;28;20033;-54
2022/02/25 01:00:22;;;;;;;12.20;3.30;;;;;;;0.58;84.11;99601.75;5045089;28;20348;-54
2022/02/25 01:02:48;;;;;;;14.30;3.03;;;;;;;0.60;84.05;99605.88;5031115;28;20059;-54
2022/02/25 01:05:13;;;;;;;11.18;3.55;;;;;;;0.47;84.40;99605.53;5041865;28;20028;-53
2022/02/25 01:07:39;;;;;;;10.07;2.50;;;;;;;0.51;84.13;99601.59;5033677;28;20045;-54
2022/02/25 01:10:05;;;;;;;12.38;3.13;;;;;;;0.56;84.11;99603.72;5029250;28;20044;-54
2022/02/25 01:12:31;;;;;;;9.90;3.15;;;;;;;0.56;83.35;99609.00;5036863;28;20460;-53
2022/02/25 01:14:56;;;;;;;11.00;2.80;;;;;;;0.68;82.79;99606.84;5031948;28;20383;-55
2022/02/25 01:17:22;;;;;;;10.68;3.42;;;;;;;0.51;83.43;99611.31;5036784;28;20038;-55
2022/02/25 01:19:47;;;;;;;8.75;2.85;;;;;;;0.56;83.10;99609.81;5036106;28;20037;-55
2022/02/25 01:22:13;;;;;;;9.15;3.08;;;;;;;0.66;82.69;99620.19;5034404;28;20029;-54
2022/02/25 01:24:38;;;;;;;11.05;2.72;;;;;;;0.60;83.06;99621.69;5035452;28;20037;-55
2022/02/25 01:27:06;;;;;;;13.95;2.58;;;;;;;0.58;83.58;99626.31;5031197;28;20133;-52
2022/02/25 01:29:31;;;;;;;10.90;2.60;;;;;;;0.52;83.20;99629.59;5030655;28;20035;-54
2022/02/25 01:31:56;;;;;;;11.73;3.25;;;;;;;0.42;83.79;99626.31;5030401;28;20541;-54
2022/02/25 01:34:22;;;;;;;7.63;2.50;;;;;;;0.30;84.47;99622.38;5038072;28;20026;-54
2022/02/25 01:36:47;;;;;;;14.07;3.08;;;;;;;0.24;84.75;99631.78;5037192;28;20049;-55
2022/02/25 01:39:13;;;;;;;14.57;3.38;;;;;;;0.13;85.60;99634.78;5033818;28;20383;-55
2022/02/25 01:41:38;;;;;;;4.53;1.73;;;;;;;-0.02;86.33;99634.59;5034318;28;20045;-55
2022/02/25 01:44:13;;;;;;;12.63;2.90;;;;;;;-0.07;87.04;99634.28;5035928;28;20052;-54
2022/02/25 01:46:39;;;;;;;6.65;2.83;;;;;;;-0.12;87.40;99631.31;5027982;28;20064;-54
2022/02/25 01:49:04;;;;;;;10.45;2.95;;;;;;;-0.06;86.99;99642.00;5033585;28;20029;-54
2022/02/25 01:51:30;;;;;;;10.30;2.90;;;;;;;0.02;86.83;99616.63;5034846;28;20037;-53
2022/02/25 01:53:55;;;;;;;6.13;2.25;;;;;;;-0.08;87.34;99633.41;5035519;28;20298;-54
2022/02/25 01:56:20;;;;;;;5.03;2.38;;;;;;;-0.20;87.77;99637.38;5037168;28;20052;-53
2022/02/25 01:58:46;;;;;;;12.77;3.13;;;;;;;-0.17;87.90;99633.59;5034750;28;20056;-54
2022/02/25 02:01:12;;;;;;;7.72;3.22;;;;;;;-0.20;88.00;99636.53;5029159;28;20034;-54
2022/02/25 02:03:38;;;;;;;7.85;2.40;;;;;;;-0.26;88.36;99636.22;5032351;28;20033;-54
2022/02/25 02:06:06;;;;;;;5.78;1.63;;;;;;;-0.37;89.43;99633.91;5029776;28;20155;-55
2022/02/25 02:08:32;;;;;;;8.43;2.60;;;;;;;-0.37;89.59;99638.34;5034411;28;20032;-55
2022/02/25 02:10:57;;;;;;;11.43;2.67;;;;;;;-0.46;90.03;99642.75;5040623;28;20045;-54
2022/02/25 02:13:23;;;;;;;11.55;2.95;;;;;;;-0.48;90.30;99642.09;5028738;28;20098;-54
2022/02/25 02:15:48;;;;;;;9.82;2.72;;;;;;;-0.52;90.69;99648.69;5034927;28;20052;-53
2022/02/25 02:18:14;;;;;;;10.13;2.70;;;;;;;-0.46;91.12;99661.19;5028403;28;20511;-53
2022/02/25 02:20:39;;;;;;;8.70;2.90;;;;;;;-0.58;91.46;99655.38;5034443;28;20502;-52
2022/02/25 02:23:04;;;;;;;9.02;2.72;;;;;;;-0.70;91.75;99659.28;5034040;28;20041;-54
2022/02/25 02:25:30;;;;;;;3.17;1.75;;;;;;;-0.57;91.95;99658.88;5028207;28;20083;-54
2022/02/25 02:30:39;;;;;;;11.30;2.78;;;;;;;-0.64;92.20;99653.41;5035201;28;20048;-52
2022/02/25 02:33:05;;;;;;;13.82;3.13;;;;;;;-0.69;92.05;99656.53;5030297;28;20041;-55
2022/02/25 02:35:30;;;;;;;3.40;1.67;;;;;;;-0.52;91.84;99667.13;5034341;28;20071;-53
2022/02/25 02:37:55;;;;;;;5.85;2.33;;;;;;;-0.64;91.81;99668.38;5029274;28;20035;-53
2022/02/25 02:40:21;;;;;;;5.82;1.85;;;;;;;-0.56;92.01;99668.41;5035200;28;20037;-54
2022/02/25 02:42:46;;;;;;;13.07;2.45;;;;;;;-0.58;91.37;99668.56;5028087;28;20025;-54
2022/02/25 02:45:15;;;;;;;11.93;3.28;;;;;;;-0.63;92.01;99676.09;4996432;28;1129625;-54
2022/02/25 02:47:40;;;;;;;7.78;2.35;;;;;;;-0.74;91.79;99657.97;5032579;28;20094;-54
2022/02/25 02:50:06;;;;;;;4.93;2.15;;;;;;;-0.60;91.85;99675.81;5033985;28;20419;-55
2022/02/25 02:52:32;;;;;;;6.55;2.28;;;;;;;-0.61;91.68;99673.34;5036118;28;20124;-53
2022/02/25 02:54:57;;;;;;;7.25;2.88;;;;;;;-0.59;91.54;99671.38;5029541;28;20402;-55
2022/02/25 02:57:23;;;;;;;7.95;2.80;;;;;;;-0.51;90.86;99674.84;5029409;28;20042;-54
2022/02/25 02:59:48;;;;;;;9.07;2.60;;;;;;;-0.48;90.75;99684.22;5028664;28;20029;-54
2022/02/25 03:02:13;;;;;;;4.88;2.10;;;;;;;-0.54;91.00;99687.50;5028261;28;20144;-55
2022/02/25 03:04:39;;;;;;;5.78;2.42;;;;;;;-0.59;91.54;99689.81;5029683;28;20394;-54
2022/02/25 03:07:04;;;;;;;6.32;2.15;;;;;;;-0.68;91.95;99692.38;5028276;28;20050;-55
2022/02/25 03:09:30;;;;;;;9.45;2.67;;;;;;;-0.76;92.40;99692.34;5036404;28;20357;-54
2022/02/25 03:11:55;;;;;;;7.35;2.60;;;;;;;-0.82;92.99;99692.16;5032433;28;20045;-55
2022/02/25 03:14:21;;;;;;;11.02;3.30;;;;;;;-0.90;93.50;99695.56;5034965;28;20080;-55
2022/02/25 03:16:46;;;;;;;7.72;2.33;;;;;;;-0.86;93.48;99691.66;5033158;28;20052;-55
2022/02/25 03:19:12;;;;;;;11.60;2.58;;;;;;;-0.86;93.41;99696.91;5032401;28;20466;-54
2022/02/25 03:21:37;;;;;;;19.60;3.25;;;;;;;-0.96;93.72;99693.56;5032210;28;20050;-54
2022/02/25 03:24:03;;;;;;;13.75;3.17;;;;;;;-0.92;93.95;99687.84;5039935;28;20454;-53
2022/02/25 03:26:28;;;;;;;14.77;3.28;;;;;;;-0.96;94.19;99690.94;5035297;28;20040;-52
2022/02/25 03:28:54;;;;;;;7.38;2.00;;;;;;;-0.92;94.07;99695.75;5029794;28;20087;-55
2022/02/25 03:31:23;;;;;;;10.32;2.92;;;;;;;-0.94;94.03;99692.44;5027934;28;20367;-53
2022/02/25 03:33:50;;;;;;;6.05;2.22;;;;;;;-0.96;94.56;99690.94;5033937;28;20059;-54
2022/02/25 03:36:15;;;;;;;7.55;2.42;;;;;;;-0.94;95.13;99691.63;5029814;28;20069;-54
2022/02/25 03:38:40;;;;;;;7.50;2.33;;;;;;;-0.99;94.76;99686.81;5036498;28;20033;-53
2022/02/25 03:41:06;;;;;;;5.70;2.33;;;;;;;-1.04;95.14;99683.84;5040873;28;20049;-55
2022/02/25 03:43:31;;;;;;;15.57;2.60;;;;;;;-1.03;95.55;99688.09;5025997;28;20037;-54
2022/02/25 03:45:57;;;;;;;20.27;3.80;;;;;;;-1.08;95.97;99688.56;5027044;28;20080;-55
2022/02/25 03:48:22;;;;;;;6.68;2.15;;;;;;;-1.09;96.01;99686.13;5030827;28;20033;-54
2022/02/25 03:50:48;;;;;;;10.38;2.75;;;;;;;-1.09;96.15;99676.41;5028131;28;20053;-53
2022/02/25 03:53:13;;;;;;;9.07;2.50;;;;;;;-1.07;96.08;99681.53;5035571;28;20029;-54
2022/02/25 03:55:38;;;;;;;21.17;3.25;;;;;;;-1.05;95.99;99682.16;5032659;28;20510;-54
2022/02/25 03:58:04;;;;;;;17.33;2.75;;;;;;;-1.03;96.01;99685.47;5029057;28;20033;-54
2022/02/25 04:00:29;;;;;;;19.73;3.00;;;;;;;-1.13;96.28;99690.84;5027110;28;20045;-54
2022/02/25 04:02:56;;;;;;;15.98;2.80;;;;;;;-1.12;96.38;99676.72;5034163;28;20075;-54
2022/02/25 04:05:22;;;;;;;13.93;2.38;;;;;;;-1.10;96.48;99689.72;5030507;28;20140;-54
2022/02/25 04:07:48;;;;;;;7.95;2.83;;;;;;;-1.20;96.35;99695.09;5034971;28;20033;-55
2022/02/25 04:10:16;;;;;;;10.82;2.95;;;;;;;-1.17;97.12;99697.41;5035255;28;20029;-53
2022/02/25 04:12:41;;;;;;;8.73;2.60;;;;;;;-1.18;97.02;99693.13;5038346;28;20120;-54
2022/02/25 04:15:08;;;;;;;16.00;3.15;;;;;;;-1.16;97.04;99696.41;5029764;28;20078;-53
2022/02/25 04:17:33;;;;;;;13.15;3.05;;;;;;;-1.21;97.57;99696.06;5033101;28;20033;-55
2022/02/25 04:19:58;;;;;;;9.18;2.92;;;;;;;-1.19;97.30;99702.00;5027629;28;20036;-53
2022/02/25 04:22:24;;;;;;;11.85;2.80;;;;;;;-1.16;97.46;99698.22;5028135;28;20171;-54
2022/02/25 04:24:49;;;;;;;17.77;3.17;;;;;;;-1.22;97.38;99704.94;5033447;28;20029;-52
2022/02/25 04:27:16;;;;;;;18.08;3.40;;;;;;;-1.17;97.49;99705.31;5015788;28;20049;-53
2022/02/25 04:29:42;;;;;;;5.05;2.15;;;;;;;-1.19;97.59;99702.00;5027854;28;20025;-54
2022/02/25 04:32:08;;;;;;;10.85;3.05;;;;;;;-1.11;97.38;99699.41;5026632;28;20040;-54
2022/02/25 04:34:33;;;;;;;10.80;2.25;;;;;;;-1.13;97.16;99696.09;5039933;28;20025;-54
2022/02/25 04:36:59;;;;;;;16.63;3.30;;;;;;;-1.24;97.47;99696.38;5030528;28;20479;-52
2022/02/25 04:39:24;;;;;;;11.57;3.40;;;;;;;-1.19;97.32;99709.91;5029535;28;20055;-54
2022/02/25 04:41:50;;;;;;;11.75;3.22;;;;;;;-1.26;97.54;99703.59;5035897;28;20042;-54
2022/02/25 04:44:15;;;;;;;19.50;3.90;;;;;;;-1.18;97.45;99706.28;5041936;28;20388;-54
2022/02/25 04:46:41;;;;;;;8.10;3.15;;;;;;;-1.17;97.30;99710.56;5032360;28;20601;-53
2022/02/25 04:49:06;;;;;;;26.77;3.13;;;;;;;-1.19;97.54;99712.53;5028290;28;20050;-52
2022/02/25 04:51:32;;;;;;;24.95;3.45;;;;;;;-1.21;97.54;99719.75;5033314;28;20038;-53
2022/02/25 04:53:57;;;;;;;9.40;3.05;;;;;;;-1.17;97.67;99718.47;5030144;28;20463;-54
2022/02/25 04:56:23;;;;;;;7.03;2.58;;;;;;;-1.21;97.74;99725.00;5031803;28;20491;-51
2022/02/25 04:58:49;;;;;;;8.10;2.65;;;;;;;-1.21;97.64;99719.75;5034390;28;20044;-52
2022/02/25 05:01:14;;;;;;;17.85;3.28;;;;;;;-1.21;97.55;99714.47;5033203;28;20041;-52
2022/02/25 05:03:40;;;;;;;10.70;2.78;;;;;;;-1.15;97.74;99713.88;5026173;28;20033;-54
2022/02/25 05:06:05;;;;;;;13.13;3.08;;;;;;;-1.26;97.78;99722.00;5027414;28;20284;-52
2022/02/25 05:08:31;;;;;;;18.45;3.03;;;;;;;-1.20;97.72;99718.78;5030970;28;20021;-54
2022/02/25 05:10:56;;;;;;;8.15;3.08;;;;;;;-1.18;97.05;99719.41;5029225;28;20076;-52
2022/02/25 05:13:21;;;;;;;12.38;3.10;;;;;;;-1.18;97.32;99719.41;5034627;28;20036;-53
2022/02/25 05:21:15;;;;;;;6.50;2.28;;;;;;;-1.17;97.45;99715.81;5030300;28;20091;-54
2022/02/25 05:23:41;;;;;;;14.15;3.80;;;;;;;-1.16;96.89;99709.56;5037825;28;20021;-54
2022/02/25 05:26:06;;;;;;;21.13;3.85;;;;;;;-1.16;97.35;99717.47;5035673;28;20099;-55
2022/02/25 05:28:31;;;;;;;15.77;3.58;;;;;;;-1.17;97.18;99715.00;5027318;28;20468;-54
2022/02/25 05:30:57;;;;;;;7.30;2.80;;;;;;;-1.23;97.19;99719.06;5025523;28;20040;-54
2022/02/25 05:33:22;;;;;;;15.63;3.22;;;;;;;-1.19;97.31;99728.31;5031808;28;20030;-55
2022/02/25 05:35:48;;;;;;;11.63;3.10;;;;;;;-1.29;97.54;99732.84;5027748;28;20491;-53
2022/02/25 05:38:16;;;;;;;17.55;2.95;;;;;;;-1.20;97.39;99726.66;5035745;28;20640;-54
2022/02/25 05:40:41;;;;;;;9.60;2.65;;;;;;;-1.24;97.72;99738.47;5035648;28;20404;-53
2022/02/25 05:43:07;;;;;;;15.90;3.70;;;;;;;-1.22;97.23;99733.88;5034501;28;20021;-53
2022/02/25 05:45:32;;;;;;;16.15;2.70;;;;;;;-1.31;97.47;99735.63;5030993;28;20494;-52
2022/02/25 05:47:58;;;;;;;10.60;2.50;;;;;;;-1.14;97.46;99741.81;5031874;28;20120;-53
2022/02/25 05:50:23;;;;;;;13.98;2.30;;;;;;;-1.15;97.21;99732.28;5033153;28;20065;-53
2022/02/25 05:52:49;;;;;;;10.48;2.92;;;;;;;-1.21;97.10;99740.78;5035219;28;20022;-54
2022/02/25 05:55:15;;;;;;;8.02;3.13;;;;;;;-1.11;96.66;99738.88;5036099;28;20028;-52
2022/02/25 05:57:41;;;;;;;16.10;3.15;;;;;;;-1.27;96.89;99744.03;5032738;28;20116;-54
2022/02/25 06:00:08;;;;;;;14.00;3.08;;;;;;;-1.16;97.14;99754.28;5034730;28;20111;-52
2022/02/25 06:02:34;;;;;;;16.48;2.95;;;;;;;-1.30;97.24;99752.22;5034989;28;20431;-52
2022/02/25 06:04:59;;;;;;;21.35;3.63;;;;;;;-1.38;97.77;99762.69;5031425;28;20033;-54
2022/02/25 06:07:25;;;;;;;17.67;3.47;;;;;;;-1.37;98.01;99764.34;5029867;28;20030;-53
2022/02/25 06:09:50;;;;;;;12.95;3.67;;;;;;;-1.36;97.64;99758.91;5031883;28;20029;-53
2022/02/25 06:12:16;;;;;;;22.13;4.18;;;;;;;-1.41;97.90;99761.19;5028525;28;20120;-53
2022/02/25 06:14:41;;;;;;;23.48;4.10;;;;;;;-1.37;97.60;99764.34;5028381;28;20045;-54
2022/02/25 06:17:07;;;;;;;17.35;3.30;;;;;;;-1.42;97.55;99771.84;5035494;28;20052;-54
2022/02/25 06:19:32;;;;;;;10.30;3.20;;;;;;;-1.41;98.00;99770.88;5039807;28;20033;-55
2022/02/25 06:21:57;;;;;;;13.88;3.25;;;;;;;-1.43;98.02;99780.72;5035769;28;20041;-54
2022/02/25 06:24:23;;;;;;;18.80;3.83;;;;;;;-1.36;97.64;99779.13;5034695;28;20032;-55
2022/02/25 06:26:49;;;;;;;26.30;3.20;;;;;;;-1.30;97.69;99783.78;5029233;28;20050;-54
2022/02/25 06:29:14;;;;;;;12.45;3.42;;;;;;;-1.32;97.18;99794.47;5030343;28;20025;-55
2022/02/25 06:31:40;;;;;;;19.13;3.70;;;;;;;-1.29;97.19;99795.97;5032174;28;20041;-53
2022/02/25 06:34:06;;;;;;;10.80;3.10;;;;;;;-1.21;97.09;99801.28;5037526;28;20034;-52
2022/02/25 06:36:31;;;;;;;13.82;4.05;;;;;;;-1.17;96.80;99794.75;5036949;28;20340;-53
2022/02/25 06:38:57;;;;;;;16.27;3.30;;;;;;;-1.13;96.42;99803.97;5030469;28;20517;-53
2022/02/25 06:41:23;;;;;;;11.40;2.60;;;;;;;-1.02;95.85;99812.59;5036971;28;20045;-52
2022/02/25 06:43:49;;;;;;;11.60;3.05;;;;;;;-1.00;95.68;99815.91;5037479;28;20024;-54
2022/02/25 06:46:14;;;;;;;21.73;3.80;;;;;;;-0.96;95.62;99812.00;5033123;28;20068;-51
2022/02/25 06:48:40;;;;;;;12.20;3.30;;;;;;;-0.99;95.40;99812.31;5029346;28;20029;-53
2022/02/25 06:51:06;;;;;;;21.20;3.53;;;;;;;-0.94;95.39;99812.66;5029615;28;20508;-51
2022/02/25 06:53:32;;;;;;;14.70;3.42;;;;;;;-0.83;95.10;99811.59;5029087;28;20032;-53
2022/02/25 06:55:57;;;;;;;9.32;2.22;;;;;;;-0.76;94.72;99813.44;5029172;28;20037;-54
2022/02/25 06:58:23;;;;;;;7.88;2.67;;;;;;;-0.66;94.17;99813.34;5034171;28;20025;-53
2022/02/25 07:00:48;;;;;;;11.80;2.90;;;;;;;-0.47;93.96;99817.56;5036944;28;20365;-52
2022/02/25 07:03:13;;;;;;;9.02;2.83;;;;;;;-0.25;92.61;99811.75;5028177;28;20455;-54
2022/02/25 07:05:39;;;;;;;5.25;2.78;;;;;;;-0.09;91.81;99810.16;5028984;28;20056;-53
2022/02/25 07:08:08;;;;;;;16.45;5.13;;;;;;;0.67;88.26;99810.97;5033401;28;20059;-52
2022/02/25 07:10:35;;;;;;;13.30;3.53;;;;;;;0.91;86.90;99812.78;5029062;28;20055;-53
2022/02/25 07:13:00;;;;;;;9.93;3.22;;;;;;;0.77;86.62;99819.53;5028919;28;21709;-53
2022/02/25 07:15:26;;;;;;;10.23;3.95;;;;;;;1.39;84.02;99816.34;5033679;28;20128;-53
2022/02/25 07:17:51;;;;;;;10.93;3.05;;;;;;;2.30;81.25;99821.13;5031590;28;20126;-54
2022/02/25 07:20:17;;;;;;;11.30;2.88;;;;;;;2.84;77.20;99822.06;5031108;28;20030;-53
2022/02/25 07:22:42;;;;;;;10.73;3.92;;;;;;;3.45;74.55;99831.63;5034376;28;20060;-54
2022/02/25 07:25:08;;;;;;;11.20;3.38;;;;;;;3.08;76.70;99834.28;5033516;28;20033;-55
2022/02/25 07:27:33;;;;;;;16.63;3.05;;;;;;;1.96;80.45;99841.78;5036284;28;20033;-54
2022/02/25 07:29:59;;;;;;;17.90;3.53;;;;;;;1.66;82.26;99846.84;5032395;28;20494;-54
2022/02/25 07:32:24;;;;;;;20.08;5.05;;;;;;;1.93;82.09;99857.00;5036931;28;20045;-55
2022/02/25 07:34:50;;;;;;;20.58;3.60;;;;;;;1.18;84.28;99857.31;5029929;28;20025;-52
2022/02/25 07:37:15;;;;;;;21.98;3.53;;;;;;;1.58;84.57;99857.44;5027041;28;20045;-56
2022/02/25 07:39:41;;;;;;;18.98;3.53;;;;;;;1.07;85.88;99871.69;5028701;28;20107;-55
2022/02/25 07:42:07;;;;;;;17.50;3.97;;;;;;;1.04;86.35;99874.63;5034920;28;20037;-52
2022/02/25 07:44:32;;;;;;;12.63;3.55;;;;;;;0.99;86.82;99881.41;5028604;28;20504;-54
2022/02/25 07:46:58;;;;;;;16.35;3.75;;;;;;;0.91;87.28;99882.22;5037031;28;20380;-56
2022/02/25 07:49:23;;;;;;;18.73;3.40;;;;;;;0.91;87.32;99884.88;5034998;28;20079;-52
2022/02/25 07:51:50;;;;;;;20.70;4.10;;;;;;;0.84;87.42;99891.78;5034783;28;20053;-56
2022/02/25 07:54:19;;;;;;;12.52;3.65;;;;;;;0.88;88.01;99887.84;5035408;28;20056;-55
2022/02/25 07:56:44;;;;;;;22.30;4.05;;;;;;;0.84;87.90;99886.50;5021475;28;20045;-54
2022/02/25 07:59:12;;;;;;;15.82;3.90;;;;;;;0.82;88.50;99888.47;5028508;28;20207;-55
2022/02/25 08:01:38;;;;;;;21.42;4.75;;;;;;;0.83;88.38;99879.59;5031100;28;20510;-56
2022/02/25 08:04:03;;;;;;;19.23;3.25;;;;;;;0.80;87.81;99890.44;5030415;28;20029;-55
2022/02/25 08:06:29;;;;;;;13.65;3.20;;;;;;;0.81;88.18;99881.56;5035305;28;20047;-56
2022/02/25 08:08:54;;;;;;;14.50;3.88;;;;;;;0.76;88.42;99884.69;5032626;28;20033;-54
2022/02/25 08:11:20;;;;;;;19.27;3.92;;;;;;;0.94;88.26;99897.75;5036104;28;20099;-55
2022/02/25 08:13:45;;;;;;;17.75;3.90;;;;;;;0.81;88.39;99881.56;5028477;28;20436;-56
2022/02/25 08:16:10;;;;;;;20.63;3.88;;;;;;;0.82;88.81;99872.66;5035688;28;20037;-55
2022/02/25 08:18:36;;;;;;;12.70;3.95;;;;;;;1.04;88.17;99881.75;5027037;28;20073;-55
2022/02/25 08:21:01;;;;;;;11.68;3.33;;;;;;;0.86;88.49;99877.44;5035146;28;20119;-53
2022/02/25 08:23:27;;;;;;;16.90;4.15;;;;;;;0.85;88.78;99874.97;5034306;28;20040;-56
2022/02/25 08:25:52;;;;;;;17.77;3.30;;;;;;;1.00;88.24;99865.41;5035665;28;20049;-55
2022/02/25 08:28:20;;;;;;;18.38;3.78;;;;;;;1.05;87.60;99860.47;5030335;28;20045;-55
2022/02/25 08:30:46;;;;;;;20.52;4.10;;;;;;;1.13;87.28;99864.91;5040223;28;20056;-55
2022/02/25 08:33:12;;;;;;;15.20;4.53;;;;;;;1.42;86.10;99869.69;5027635;28;20026;-54
2022/02/25 08:35:37;;;;;;;15.20;3.75;;;;;;;1.63;85.75;99860.41;5026974;28;20048;-56
2022/02/25 08:38:03;;;;;;;12.77;3.65;;;;;;;1.48;85.33;99869.00;5038332;28;20044;-54
2022/02/25 08:40:28;;;;;;;21.17;3.60;;;;;;;1.90;84.06;99867.09;5035229;28;20492;-60
2022/02/25 08:42:54;;;;;;;19.35;4.18;;;;;;;2.34;83.28;99870.03;5032968;28;20029;-54
2022/02/25 08:45:19;;;;;;;13.77;3.78;;;;;;;3.00;80.05;99872.28;5037044;28;20128;-56
2022/02/25 08:47:45;;;;;;;13.27;4.03;;;;;;;2.14;82.85;99864.31;5035403;28;20033;-54
2022/02/25 08:50:11;;;;;;;13.38;3.58;;;;;;;2.08;83.48;99872.97;5029670;28;20065;-58
2022/02/25 08:52:36;;;;;;;18.73;3.50;;;;;;;2.08;83.76;99880.06;5031563;28;20112;-55
2022/02/25 08:55:02;;;;;;;23.73;3.58;;;;;;;1.75;85.06;99877.53;5027625;28;20025;-55
2022/02/25 08:57:27;;;;;;;15.52;3.72;;;;;;;1.92;84.74;99881.78;5027810;28;20375;-56
2022/02/25 08:59:53;;;;;;;13.27;3.40;;;;;;;1.88;84.49;99872.53;5034602;28;20033;-54
2022/02/25 09:02:18;;;;;;;17.27;3.50;;;;;;;1.94;85.53;99873.66;5032225;28;20042;-55
2022/02/25 09:04:44;;;;;;;21.92;3.83;;;;;;;2.16;84.18;99872.09;5031336;28;20041;-57
2022/02/25 09:07:10;;;;;;;21.83;4.72;;;;;;;2.21;83.74;99872.41;5027277;28;20056;-55
2022/02/25 09:09:35;;;;;;;14.38;3.78;;;;;;;2.15;83.03;99870.47;5028822;28;20067;-56
2022/02/25 09:12:01;;;;;;;15.55;4.15;;;;;;;2.17;82.81;99879.03;5030925;28;20045;-54
2022/02/25 09:14:28;;;;;;;10.18;4.03;;;;;;;2.27;83.69;99882.31;5038747;28;20028;-54
2022/02/25 09:16:54;;;;;;;13.60;3.42;;;;;;;2.42;82.17;99885.06;5037364;28;20121;-55
2022/02/25 09:19:19;;;;;;;14.35;3.83;;;;;;;2.67;82.33;99891.03;5035702;28;20041;-55
2022/02/25 09:21:45;;;;;;;12.40;3.97;;;;;;;2.64;83.27;99891.34;5038801;28;20243;-52
2022/02/25 09:24:10;;;;;;;14.05;4.03;;;;;;;2.43;83.56;99889.34;5030561;28;20025;-56
2022/02/25 09:26:36;;;;;;;18.00;3.35;;;;;;;2.79;82.24;99889.59;5037856;28;20076;-55
2022/02/25 09:29:01;;;;;;;10.98;4.15;;;;;;;3.83;79.06;99886.41;5033669;28;20472;-57
2022/02/25 09:31:30;;;;;;;20.80;3.33;;;;;;;3.51;77.85;99898.97;5021587;28;20049;-57
2022/02/25 09:33:55;;;;;;;20.00;3.95;;;;;;;3.49;79.72;99900.97;5020055;28;20368;-55
2022/02/25 09:36:21;;;;;;;12.52;3.08;;;;;;;3.09;80.42;99902.97;5034049;28;20107;-56
2022/02/25 09:38:46;;;;;;;18.17;4.40;;;;;;;2.79;82.53;99905.50;5030850;28;20573;-55
2022/02/25 09:41:11;;;;;;;21.45;4.78;;;;;;;2.72;82.76;99904.56;5031699;28;20072;-56
2022/02/25 09:43:37;;;;;;;11.98;3.90;;;;;;;2.67;82.72;99906.91;5036499;28;20041;-55
2022/02/25 09:46:04;;;;;;;12.07;3.80;;;;;;;2.87;82.13;99906.44;5035592;28;20474;-55
2022/02/25 09:48:30;;;;;;;25.48;4.88;;;;;;;3.16;81.14;99911.84;5030208;28;20471;-56
2022/02/25 09:50:55;;;;;;;10.15;3.72;;;;;;;3.22;80.10;99916.47;5031841;28;20033;-56
2022/02/25 09:53:21;;;;;;;20.23;4.38;;;;;;;3.17;81.50;99918.81;5042606;28;20033;-53
2022/02/25 09:55:47;;;;;;;14.35;3.92;;;;;;;3.32;80.52;99924.16;5028842;28;20515;-55
2022/02/25 09:58:12;;;;;;;17.35;4.18;;;;;;;2.90;81.21;99922.00;5030402;28;20033;-55
2022/02/25 10:00:38;;;;;;;18.38;4.20;;;;;;;2.56;83.45;99920.53;5035710;28;20049;-55
2022/02/25 10:03:07;;;;;;;17.23;4.25;;;;;;;2.42;84.75;99931.84;5035960;28;20025;-54
2022/02/25 10:05:34;;;;;;;17.40;4.28;;;;;;;2.41;84.72;99927.53;5034372;28;20096;-53
2022/02/25 10:08:07;;;;;;;19.40;3.60;;;;;;;2.12;84.94;99931.63;5033004;28;20032;-53
2022/02/25 10:10:39;;;;;;;16.00;3.42;;;;;;;1.94;85.49;99943.22;5033413;28;20038;-54
2022/02/25 10:13:05;;;;;;;16.27;3.90;;;;;;;1.99;86.02;99942.72;5034618;28;20029;-53
2022/02/25 10:15:34;;;;;;;24.60;4.40;;;;;;;1.93;86.55;99952.16;5030181;28;20099;-55
2022/02/25 10:18:10;;;;;;;18.25;3.90;;;;;;;1.97;87.64;99952.63;5017342;28;20045;-55
2022/02/25 10:20:36;;;;;;;18.25;4.40;;;;;;;1.92;87.64;99952.31;5036201;28;20392;-54
2022/02/25 10:23:01;;;;;;;31.27;4.80;;;;;;;1.97;88.13;99957.09;5032708;28;20022;-54
2022/02/25 10:25:33;;;;;;;21.50;4.40;;;;;;;2.00;88.63;99952.31;5036346;28;20061;-52
2022/02/25 10:27:58;;;;;;;16.40;3.42;;;;;;;1.98;89.01;99958.78;5033775;28;20031;-54
2022/02/25 10:30:24;;;;;;;26.27;5.00;;;;;;;2.07;88.90;99952.44;5038862;28;20040;-53
2022/02/25 10:32:51;;;;;;;20.17;4.60;;;;;;;2.16;88.91;99951.44;5029955;28;20025;-54
2022/02/25 10:35:23;;;;;;;14.13;4.60;;;;;;;2.35;88.04;99955.53;5030262;28;20468;-54
2022/02/25 10:38:08;;;;;;;22.38;5.28;;;;;;;2.30;87.61;99948.09;5031719;28;20495;-55
2022/02/25 10:40:47;;;;;;;18.70;5.07;;;;;;;2.59;87.16;99941.34;5036095;28;20051;-56
2022/02/25 10:43:22;;;;;;;17.05;4.10;;;;;;;2.76;86.67;99944.72;5033184;28;20399;-56
2022/02/25 10:45:49;;;;;;;16.95;4.35;;;;;;;2.80;85.28;99936.28;5034268;28;20511;-54
2022/02/25 10:48:16;;;;;;;14.50;4.10;;;;;;;3.26;83.30;99934.66;5036031;28;20092;-54
2022/02/25 10:50:47;;;;;;;14.93;3.97;;;;;;;4.20;80.86;99937.72;5034835;28;20053;-57
2022/02/25 10:53:13;;;;;;;;;;;;;;;4.14;80.40;99935.78;5035607;28;20436;-54
2022/02/25 10:55:38;;;;;;;36.95;4.93;;;;;;;4.13;80.34;99942.09;5035856;28;19929;-57
2022/02/25 10:58:04;;;;;;;24.73;5.25;;;;;;;4.66;78.60;99950.75;5038140;28;20035;-54
2022/02/25 11:00:30;;;;;;;21.85;4.30;;;;;;;4.88;76.05;99955.09;5038755;28;20395;-54
2022/02/25 11:02:59;;;;;;;18.73;4.63;;;;;;;4.11;79.10;99966.16;5027627;28;20017;-54
2022/02/25 11:05:29;;;;;;;19.58;4.78;;;;;;;4.04;80.79;99971.38;5030098;28;20373;-53
2022/02/25 11:07:59;;;;;;;22.48;5.20;;;;;;;4.31;80.50;99969.09;5034946;28;20072;-53
2022/02/25 11:10:32;;;;;;;12.88;4.18;;;;;;;4.63;79.72;99983.00;5034831;28;20033;-53
2022/02/25 11:13:01;;;;;;;20.90;4.60;;;;;;;4.09;79.92;99981.44;5042963;28;20375;-55
2022/02/25 11:15:28;;;;;;;15.43;4.03;;;;;;;4.35;80.13;99974.88;5036173;28;20041;-57
2022/02/25 11:17:53;;;;;;;12.50;3.88;;;;;;;4.30;80.21;99972.75;5026170;28;20025;-56
2022/02/25 11:20:23;;;;;;;18.63;4.45;;;;;;;4.63;79.77;99980.34;5032865;28;20544;-56
2022/02/25 11:23:03;;;;;;;17.95;3.97;;;;;;;4.48;79.65;99973.19;5030604;28;20036;-55
2022/02/25 11:25:28;;;;;;;15.60;4.28;;;;;;;4.45;78.62;99981.53;5035391;28;20097;-55
2022/02/25 11:27:54;;;;;;;19.42;4.75;;;;;;;4.92;78.35;99980.28;5029623;28;20037;-54
2022/02/25 11:30:56;;;;;;;18.15;4.20;;;;;;;5.51;75.92;99989.84;5027859;28;20029;-53
2022/02/25 11:33:23;;;;;;;16.75;3.80;;;;;;;5.58;75.48;99988.09;5035647;28;20029;-54
2022/02/25 11:35:55;;;;;;;14.27;3.88;;;;;;;6.11;70.69;99987.69;5029532;28;20132;-54